createdAt,value
2018-10-19T00:02:19.079Z,9.30
2018-10-19T00:04:47.375Z,9.30
2018-10-19T00:07:15.696Z,9.30
2018-10-19T00:09:44.000Z,9.30
2018-10-19T00:12:12.344Z,9.30
2018-10-19T00:14:40.647Z,9.30
2018-10-19T00:17:09.007Z,9.30
2018-10-19T00:19:37.351Z,9.30
2018-10-19T00:22:05.911Z,9.30
2018-10-19T00:24:34.256Z,9.30
2018-10-19T00:27:02.600Z,9.30
2018-10-19T00:29:30.871Z,9.30
2018-10-19T00:31:59.183Z,9.30
2018-10-19T00:34:30.452Z,9.30
2018-10-19T00:36:58.728Z,9.30
2018-10-19T00:39:27.028Z,9.30
2018-10-19T00:41:55.337Z,9.20
2018-10-19T00:44:23.708Z,9.20
2018-10-19T00:46:52.065Z,9.20
2018-10-19T00:49:20.379Z,9.20
2018-10-19T00:51:48.704Z,9.20
2018-10-19T00:54:17.028Z,9.10
2018-10-19T00:56:45.360Z,9.00
2018-10-19T00:59:20.417Z,9.00
2018-10-19T01:01:48.728Z,9.00
2018-10-19T01:04:17.004Z,8.90
2018-10-19T01:06:45.304Z,8.90
2018-10-19T01:09:13.678Z,8.90
2018-10-19T01:14:10.008Z,8.80
2018-10-19T01:16:38.373Z,8.80
2018-10-19T01:19:06.628Z,8.70
2018-10-19T01:21:34.948Z,8.70
2018-10-19T01:24:06.195Z,8.70
2018-10-19T01:26:34.540Z,8.60
2018-10-19T01:29:02.917Z,8.60
2018-10-19T01:31:31.169Z,8.60
2018-10-19T01:33:59.440Z,8.60
2018-10-19T01:36:33.100Z,8.60
2018-10-19T01:39:01.433Z,8.60
2018-10-19T01:41:29.744Z,8.60
2018-10-19T01:43:58.036Z,8.60
2018-10-19T01:46:26.324Z,8.50
2018-10-19T01:48:54.608Z,8.50
2018-10-19T01:51:22.883Z,8.50
2018-10-19T01:53:51.184Z,8.50
2018-10-19T01:56:19.464Z,8.40
2018-10-19T01:58:47.777Z,8.40
2018-10-19T02:01:16.091Z,8.30
2018-10-19T02:03:44.389Z,8.30
2018-10-19T02:06:12.696Z,8.30
2018-10-19T02:08:40.977Z,8.40
2018-10-19T02:11:09.295Z,8.40
2018-10-19T02:13:37.635Z,8.40
2018-10-19T02:16:05.931Z,8.50
2018-10-19T02:18:34.369Z,8.60
2018-10-19T02:21:09.379Z,8.50
2018-10-19T02:23:37.689Z,8.50
2018-10-19T02:26:06.029Z,8.50
2018-10-19T02:28:34.377Z,8.50
2018-10-19T02:31:02.676Z,8.50
2018-10-19T02:33:31.097Z,8.50
2018-10-19T02:35:59.417Z,8.50
2018-10-19T02:38:27.705Z,8.50
2018-10-19T02:40:56.171Z,8.50
2018-10-19T02:43:24.441Z,8.50
2018-10-19T02:45:52.829Z,8.40
2018-10-19T02:48:21.130Z,8.40
2018-10-19T02:50:49.441Z,8.40
2018-10-19T02:53:17.872Z,8.40
2018-10-19T02:55:46.126Z,8.40
2018-10-19T02:58:14.394Z,8.40
2018-10-19T03:00:42.677Z,8.40
2018-10-19T03:03:11.135Z,8.30
2018-10-19T03:05:39.382Z,8.40
2018-10-19T03:08:07.690Z,8.40
2018-10-19T03:10:35.982Z,8.40
2018-10-19T03:13:04.377Z,8.40
2018-10-19T03:15:32.673Z,8.40
2018-10-19T03:18:00.990Z,8.40
2018-10-19T03:20:29.294Z,8.40
2018-10-19T03:22:57.673Z,8.40
2018-10-19T03:25:26.062Z,8.40
2018-10-19T03:27:54.382Z,8.50
2018-10-19T03:30:22.666Z,8.40
2018-10-19T03:32:50.961Z,8.50
2018-10-19T03:35:19.288Z,8.50
2018-10-19T03:37:47.617Z,8.60
2018-10-19T03:40:15.974Z,8.60
2018-10-19T03:42:44.366Z,8.60
2018-10-19T03:45:12.720Z,8.60
2018-10-19T03:47:40.990Z,8.60
2018-10-19T03:50:09.278Z,8.60
2018-10-19T03:52:37.545Z,8.60
2018-10-19T03:55:06.389Z,8.50
2018-10-19T03:57:34.678Z,8.50
2018-10-19T04:00:03.018Z,8.50
2018-10-19T04:02:31.310Z,8.50
2018-10-19T04:04:59.653Z,8.50
2018-10-19T04:07:27.979Z,8.50
2018-10-19T04:09:56.267Z,8.50
2018-10-19T04:12:24.581Z,8.50
2018-10-19T04:14:52.931Z,8.50
2018-10-19T04:17:21.291Z,8.50
2018-10-19T04:19:49.641Z,8.40
2018-10-19T04:22:17.997Z,8.40
2018-10-19T04:24:46.329Z,8.40
2018-10-19T04:27:14.778Z,8.40
2018-10-19T04:29:43.077Z,8.40
2018-10-19T04:32:11.494Z,8.40
2018-10-19T04:34:39.846Z,8.40
2018-10-19T04:37:08.224Z,8.40
2018-10-19T04:39:36.637Z,8.40
2018-10-19T04:42:05.240Z,8.40
2018-10-19T04:44:33.442Z,8.40
2018-10-19T04:47:01.959Z,8.50
2018-10-19T04:49:30.204Z,8.40
2018-10-19T04:51:58.536Z,8.50
2018-10-19T04:54:26.910Z,8.50
2018-10-19T04:56:55.277Z,8.50
2018-10-19T04:59:23.575Z,8.40
2018-10-19T05:01:51.946Z,8.40
2018-10-19T05:04:20.549Z,8.40
2018-10-19T05:06:49.034Z,8.30
2018-10-19T05:09:17.577Z,8.30
2018-10-19T05:11:45.958Z,8.30
2018-10-19T05:14:14.384Z,8.20
2018-10-19T05:16:42.788Z,8.20
2018-10-19T05:22:04.522Z,8.20
2018-10-19T05:24:32.917Z,8.20
2018-10-19T05:27:01.218Z,8.10
2018-10-19T05:29:29.542Z,8.20
2018-10-19T05:31:57.884Z,8.20
2018-10-19T05:34:26.283Z,8.20
2018-10-19T05:36:54.630Z,8.20
2018-10-19T05:39:22.959Z,8.10
2018-10-19T05:41:51.310Z,8.10
2018-10-19T05:44:19.561Z,8.10
2018-10-19T05:46:48.023Z,8.10
2018-10-19T05:49:16.307Z,8.10
2018-10-19T05:51:44.897Z,8.10
2018-10-19T05:54:13.157Z,8.10
2018-10-19T05:56:41.402Z,8.20
2018-10-19T05:59:09.724Z,8.10
2018-10-19T06:01:38.046Z,8.10
2018-10-19T06:07:05.274Z,8.10
2018-10-19T06:09:33.567Z,8.50
2018-10-19T06:12:01.816Z,8.40
2018-10-19T06:14:30.115Z,8.30
2018-10-19T06:17:05.799Z,8.20
2018-10-19T06:19:34.535Z,8.10
2018-10-19T06:22:02.794Z,8.00
2018-10-19T06:24:31.066Z,8.00
2018-10-19T06:26:59.455Z,8.00
2018-10-19T06:29:27.739Z,8.00
2018-10-19T06:31:56.016Z,8.00
2018-10-19T06:34:24.243Z,8.00
2018-10-19T06:36:52.611Z,8.00
2018-10-19T06:39:21.007Z,8.00
2018-10-19T06:41:49.319Z,7.90
2018-10-19T06:44:17.609Z,8.00
2018-10-19T06:46:48.287Z,7.90
2018-10-19T06:51:44.594Z,8.00
2018-10-19T06:54:12.916Z,8.40
2018-10-19T06:56:41.371Z,8.70
2018-10-19T06:59:09.907Z,8.90
2018-10-19T07:01:38.120Z,9.20
2018-10-19T07:04:06.544Z,9.20
2018-10-19T07:06:34.871Z,9.30
2018-10-19T07:09:04.547Z,9.20
2018-10-19T07:11:32.900Z,9.20
2018-10-19T07:14:01.606Z,9.30
2018-10-19T07:16:29.864Z,9.30
2018-10-19T07:18:58.323Z,9.40
2018-10-19T07:21:26.544Z,9.60
2018-10-19T07:23:54.795Z,9.80
2018-10-19T07:26:27.833Z,9.80
2018-10-19T07:28:56.355Z,9.90
2018-10-19T07:31:24.656Z,10.00
2018-10-19T07:33:54.027Z,10.20
2018-10-19T07:36:22.405Z,10.40
2018-10-19T07:38:50.674Z,10.60
2018-10-19T07:41:18.965Z,10.50
2018-10-19T07:43:47.289Z,10.60
2018-10-19T07:46:15.557Z,10.70
2018-10-19T07:48:43.852Z,10.70
2018-10-19T07:53:40.132Z,11.00
2018-10-19T07:56:08.489Z,11.40
2018-10-19T07:58:36.804Z,11.30
2018-10-19T08:01:05.448Z,11.30
2018-10-19T08:03:33.796Z,11.20
2018-10-19T08:08:35.321Z,11.60
2018-10-19T08:11:03.856Z,11.80
2018-10-19T08:13:32.072Z,11.80
2018-10-19T08:16:00.392Z,12.10
2018-10-19T08:18:28.684Z,12.30
2018-10-19T08:20:57.002Z,12.40
2018-10-19T08:23:25.574Z,12.60
2018-10-19T08:25:53.899Z,12.80
2018-10-19T08:28:22.178Z,12.90
2018-10-19T08:30:50.538Z,13.10
2018-10-19T08:33:25.337Z,13.20
2018-10-19T08:35:53.584Z,13.50
2018-10-19T08:38:21.896Z,13.70
2018-10-19T08:40:50.180Z,13.80
2018-10-19T08:43:18.508Z,14.00
2018-10-19T08:45:46.945Z,14.30
2018-10-19T08:48:15.345Z,14.30
2018-10-19T08:50:43.585Z,14.50
2018-10-19T08:53:11.964Z,14.60
2018-10-19T08:55:40.157Z,14.80
2018-10-19T08:58:08.559Z,14.90
2018-10-19T09:00:36.848Z,15.00
2018-10-19T09:03:05.912Z,15.00
2018-10-19T09:05:34.293Z,15.00
2018-10-19T09:08:02.600Z,15.00
2018-10-19T09:10:31.193Z,15.20
2018-10-19T09:12:59.607Z,15.40
2018-10-19T09:15:27.909Z,15.50
2018-10-19T09:17:56.158Z,15.60
2018-10-19T09:20:26.969Z,15.70
2018-10-19T09:22:55.247Z,15.70
2018-10-19T09:25:23.497Z,15.80
2018-10-19T09:27:51.828Z,16.00
2018-10-19T09:30:20.146Z,16.20
2018-10-19T09:32:48.525Z,16.40
2018-10-19T09:35:16.890Z,16.60
2018-10-19T09:37:45.073Z,16.80
2018-10-19T09:40:13.372Z,17.10
2018-10-19T09:42:41.586Z,17.10
2018-10-19T09:45:09.858Z,17.10
2018-10-19T09:47:39.756Z,17.00
2018-10-19T09:50:08.221Z,17.20
2018-10-19T09:52:36.649Z,17.40
2018-10-19T09:55:06.908Z,17.60
2018-10-19T09:57:35.295Z,17.60
2018-10-19T10:00:04.090Z,17.70
2018-10-19T10:02:32.565Z,17.70
2018-10-19T10:05:01.128Z,17.80
2018-10-19T10:07:29.786Z,17.70
2018-10-19T10:09:58.291Z,17.80
2018-10-19T10:12:26.760Z,17.90
2018-10-19T10:14:55.186Z,17.90
2018-10-19T10:17:23.610Z,17.60
2018-10-19T10:19:52.082Z,17.60
2018-10-19T10:22:20.568Z,17.70
2018-10-19T10:24:49.066Z,17.60
2018-10-19T10:27:18.246Z,17.70
2018-10-19T10:29:46.658Z,17.70
2018-10-19T10:32:15.319Z,17.80
2018-10-19T10:34:43.858Z,17.90
2018-10-19T10:37:12.346Z,17.70
2018-10-19T10:39:40.791Z,17.70
2018-10-19T10:42:09.215Z,17.70
2018-10-19T10:44:37.967Z,17.60
2018-10-19T10:47:06.588Z,17.40
2018-10-19T10:49:35.011Z,17.60
2018-10-19T10:52:03.528Z,17.70
2018-10-19T10:54:31.910Z,17.70
2018-10-19T10:57:00.755Z,17.90
2018-10-19T10:59:29.426Z,18.10
2018-10-19T11:01:57.899Z,18.40
2018-10-19T11:04:26.427Z,18.60
2018-10-19T11:06:54.918Z,18.50
2018-10-19T11:09:23.346Z,18.20
2018-10-19T11:11:51.910Z,18.30
2018-10-19T11:14:20.318Z,18.40
2018-10-19T11:16:49.777Z,18.60
2018-10-19T11:19:18.216Z,18.70
2018-10-19T11:21:47.133Z,18.90
2018-10-19T11:24:15.563Z,19.10
2018-10-19T11:26:44.339Z,19.30
2018-10-19T11:29:12.802Z,19.50
2018-10-19T11:31:41.296Z,19.80
2018-10-19T11:34:09.755Z,19.80
2018-10-19T11:36:38.163Z,19.70
2018-10-19T11:39:08.815Z,19.40
2018-10-19T11:41:37.283Z,19.50
2018-10-19T11:44:05.888Z,19.50
2018-10-19T11:46:34.780Z,19.50
2018-10-19T11:49:03.136Z,19.60
2018-10-19T11:51:31.455Z,19.70
2018-10-19T11:53:59.779Z,19.70
2018-10-19T11:56:28.051Z,19.50
2018-10-19T11:58:56.435Z,19.10
2018-10-19T12:01:24.707Z,18.90
2018-10-19T12:03:54.076Z,18.80
2018-10-19T12:06:22.296Z,18.70
2018-10-19T12:08:50.791Z,18.70
2018-10-19T12:11:19.095Z,18.60
2018-10-19T12:13:47.486Z,18.70
2018-10-19T12:16:15.849Z,18.70
2018-10-19T12:18:44.388Z,18.70
2018-10-19T12:21:12.741Z,19.00
2018-10-19T12:23:41.056Z,19.30
2018-10-19T12:26:09.380Z,19.50
2018-10-19T12:28:37.741Z,19.60
2018-10-19T12:31:06.426Z,19.70
2018-10-19T12:33:34.804Z,19.40
2018-10-19T12:36:03.132Z,19.50
2018-10-19T12:38:31.436Z,19.40
2018-10-19T12:40:59.843Z,19.50
2018-10-19T12:43:34.797Z,19.30
2018-10-19T12:46:25.052Z,19.50
2018-10-19T12:48:54.025Z,19.60
2018-10-19T12:51:22.368Z,19.30
2018-10-19T12:53:50.746Z,19.40
2018-10-19T12:56:19.848Z,19.50
2018-10-19T12:58:49.053Z,19.40
2018-10-19T13:01:17.513Z,19.20
2018-10-19T13:03:45.828Z,19.50
2018-10-19T13:06:14.140Z,19.50
2018-10-19T13:08:42.588Z,19.70
2018-10-19T13:11:10.940Z,19.80
2018-10-19T13:13:39.240Z,19.70
2018-10-19T13:16:07.585Z,19.50
2018-10-19T13:18:35.852Z,19.30
2018-10-19T13:21:04.674Z,19.40
2018-10-19T13:23:33.500Z,19.20
2018-10-19T13:26:02.045Z,19.00
2018-10-19T13:28:30.574Z,18.70
2018-10-19T13:30:58.901Z,18.20
2018-10-19T13:33:27.294Z,18.10
2018-10-19T13:35:55.696Z,18.00
2018-10-19T13:38:24.321Z,17.80
2018-10-19T13:40:53.409Z,17.80
2018-10-19T13:43:21.880Z,18.00
2018-10-19T13:45:50.575Z,18.10
2018-10-19T13:48:19.333Z,18.00
2018-10-19T13:50:47.663Z,17.80
2018-10-19T13:53:16.090Z,17.80
2018-10-19T13:55:44.596Z,17.70
2018-10-19T13:58:13.004Z,17.50
2018-10-19T14:00:41.427Z,17.50
2018-10-19T14:03:09.811Z,17.70
2018-10-19T14:05:38.213Z,18.10
2018-10-19T14:08:06.441Z,18.50
2018-10-19T14:10:34.749Z,18.70
2018-10-19T14:13:03.143Z,18.80
2018-10-19T14:15:31.513Z,18.70
2018-10-19T14:17:59.889Z,18.60
2018-10-19T14:20:28.205Z,18.70
2018-10-19T14:22:56.523Z,18.60
2018-10-19T14:25:24.856Z,18.60
2018-10-19T14:27:53.185Z,18.70
2018-10-19T14:30:21.607Z,18.60
2018-10-19T14:32:50.083Z,18.60
2018-10-19T14:35:18.474Z,18.50
2018-10-19T14:37:47.335Z,18.30
2018-10-19T14:40:17.017Z,18.10
2018-10-19T14:45:14.524Z,17.90
2018-10-19T14:47:43.534Z,17.40
2018-10-19T14:50:13.758Z,17.20
2018-10-19T14:52:42.155Z,17.10
2018-10-19T14:55:12.258Z,17.10
2018-10-19T14:57:40.614Z,16.90
2018-10-19T15:00:11.953Z,16.80
2018-10-19T15:02:40.398Z,16.80
2018-10-19T15:05:10.081Z,16.60
2018-10-19T15:07:38.791Z,16.50
2018-10-19T15:10:10.247Z,16.50
2018-10-19T15:12:38.545Z,16.50
2018-10-19T15:15:07.129Z,16.60
2018-10-19T15:17:35.446Z,16.70
2018-10-19T15:20:04.219Z,16.80
2018-10-19T15:22:32.642Z,16.70
2018-10-19T15:25:00.939Z,16.70
2018-10-19T15:27:29.335Z,16.70
2018-10-19T15:29:57.846Z,16.70
2018-10-19T15:32:26.166Z,16.60
2018-10-19T15:34:54.919Z,16.40
2018-10-19T15:37:23.354Z,16.40
2018-10-19T15:39:51.798Z,16.40
2018-10-19T15:42:20.303Z,16.20
2018-10-19T15:44:48.710Z,16.20
2018-10-19T15:47:18.211Z,16.10
2018-10-19T15:49:47.173Z,16.10
2018-10-19T15:52:15.682Z,16.10
2018-10-19T15:54:44.066Z,16.10
2018-10-19T15:57:12.490Z,16.00
2018-10-19T15:59:40.859Z,15.90
2018-10-19T16:02:09.274Z,15.70
2018-10-19T16:04:37.915Z,15.70
2018-10-19T16:07:06.567Z,15.50
2018-10-19T16:09:34.978Z,15.40
2018-10-19T16:12:03.436Z,15.40
2018-10-19T16:14:31.775Z,15.30
2018-10-19T16:17:00.039Z,15.20
2018-10-19T16:19:28.434Z,15.20
2018-10-19T16:21:56.723Z,15.10
2018-10-19T16:24:24.998Z,15.10
2018-10-19T16:26:54.071Z,15.00
2018-10-19T16:29:22.582Z,15.10
2018-10-19T16:31:50.851Z,15.00
2018-10-19T16:36:47.151Z,14.90
2018-10-19T16:41:53.918Z,14.70
2018-10-19T16:44:22.223Z,14.60
2018-10-19T16:46:52.027Z,14.50
2018-10-19T16:49:20.404Z,14.50
2018-10-19T16:54:32.137Z,14.20
2018-10-19T16:57:00.599Z,14.10
2018-10-19T16:59:29.060Z,14.10
2018-10-19T17:01:57.379Z,14.10
2018-10-19T17:07:06.060Z,14.10
2018-10-19T17:09:35.844Z,14.10
2018-10-19T17:12:04.204Z,14.00
2018-10-19T17:14:32.517Z,14.00
2018-10-19T17:17:00.801Z,14.00
2018-10-19T17:19:29.085Z,13.90
2018-10-19T17:21:57.948Z,13.90
2018-10-19T17:26:54.478Z,13.80
2018-10-19T17:29:22.864Z,13.60
2018-10-19T17:31:51.160Z,13.60
2018-10-19T17:34:19.424Z,13.50
2018-10-19T17:36:47.712Z,13.50
2018-10-19T17:39:16.012Z,13.40
2018-10-19T17:41:44.264Z,13.40
2018-10-19T17:46:40.595Z,13.40
2018-10-19T17:49:09.051Z,13.10
2018-10-19T17:51:37.698Z,13.00
2018-10-19T17:54:06.150Z,12.90
2018-10-19T17:56:34.462Z,12.80
2018-10-19T17:59:02.793Z,12.90
2018-10-19T18:01:31.063Z,12.90
2018-10-19T18:03:59.353Z,12.80
2018-10-19T18:06:27.645Z,12.70
2018-10-19T18:08:56.011Z,12.70
2018-10-19T18:11:24.372Z,12.60
2018-10-19T18:13:52.593Z,12.50
2018-10-19T18:16:20.922Z,12.50
2018-10-19T18:18:49.217Z,12.50
2018-10-19T18:21:17.664Z,12.40
2018-10-19T18:23:45.969Z,12.40
2018-10-19T18:26:14.279Z,12.30
2018-10-19T18:28:42.545Z,12.20
2018-10-19T18:31:10.877Z,12.10
2018-10-19T18:33:39.309Z,12.10
2018-10-19T18:36:07.650Z,12.00
2018-10-19T18:38:36.111Z,12.00
2018-10-19T18:41:04.928Z,11.90
2018-10-19T18:43:33.160Z,12.00
2018-10-19T18:46:01.449Z,12.00
2018-10-19T18:48:29.773Z,12.00
2018-10-19T18:50:58.077Z,11.80
2018-10-19T18:53:26.380Z,11.80
2018-10-19T18:55:55.062Z,11.80
2018-10-19T18:58:23.333Z,11.80
2018-10-19T19:00:51.720Z,11.60
2018-10-19T19:03:20.000Z,11.60
2018-10-19T19:05:48.273Z,11.60
2018-10-19T19:08:16.652Z,11.60
2018-10-19T19:10:45.017Z,11.60
2018-10-19T19:13:32.994Z,11.60
2018-10-19T19:16:01.865Z,11.60
2018-10-19T19:18:30.186Z,11.60
2018-10-19T19:20:58.494Z,11.60
2018-10-19T19:23:26.894Z,11.50
2018-10-19T19:26:00.542Z,11.50
2018-10-19T19:28:28.829Z,11.50
2018-10-19T19:30:57.133Z,11.50
2018-10-19T19:38:26.982Z,11.50
2018-10-19T19:41:00.537Z,11.10
2018-10-19T19:43:28.770Z,10.90
2018-10-19T19:45:57.034Z,10.90
2018-10-19T19:48:30.766Z,10.90
2018-10-19T19:50:59.050Z,10.90
2018-10-19T19:53:27.416Z,10.80
2018-10-19T19:55:55.759Z,10.80
2018-10-19T19:58:24.011Z,10.80
2018-10-19T20:00:52.314Z,10.80
2018-10-19T20:03:20.710Z,10.80
2018-10-19T20:05:49.007Z,10.70
2018-10-19T20:13:13.401Z,10.70
2018-10-19T20:15:41.676Z,10.40
2018-10-19T20:18:10.062Z,10.40
2018-10-19T20:20:38.339Z,10.40
2018-10-19T20:23:06.717Z,10.40
2018-10-19T20:25:35.015Z,10.30
2018-10-19T20:28:03.291Z,10.20
2018-10-19T20:30:31.579Z,10.00
2018-10-19T20:32:59.871Z,10.00
2018-10-19T20:35:28.126Z,9.90
2018-10-19T20:37:56.492Z,10.00
2018-10-19T20:40:24.792Z,10.00
2018-10-19T20:42:53.200Z,9.90
2018-10-19T20:45:21.500Z,10.00
2018-10-19T20:47:49.820Z,10.00
2018-10-19T20:50:18.121Z,10.00
2018-10-19T20:52:46.397Z,10.00
2018-10-19T20:55:14.664Z,9.90
2018-10-19T20:57:42.931Z,9.90
2018-10-19T21:00:11.216Z,9.80
2018-10-19T21:02:39.500Z,9.80
2018-10-19T21:05:08.822Z,9.80
2018-10-19T21:07:37.167Z,9.80
2018-10-19T21:10:07.284Z,9.90
2018-10-19T21:12:35.940Z,9.80
2018-10-19T21:15:04.748Z,9.80
2018-10-19T21:17:33.020Z,9.70
2018-10-19T21:20:01.386Z,9.70
2018-10-19T21:22:29.583Z,9.70
2018-10-19T21:24:57.865Z,9.70
2018-10-19T21:27:26.152Z,9.70
2018-10-19T21:29:54.545Z,9.70
2018-10-19T21:32:22.812Z,9.70
2018-10-19T21:34:51.201Z,9.60
2018-10-19T21:37:19.493Z,9.60
2018-10-19T21:39:47.816Z,9.60
2018-10-19T21:42:16.096Z,9.60
2018-10-19T21:44:44.340Z,9.50
2018-10-19T21:47:12.729Z,9.40
2018-10-19T21:49:40.920Z,9.40
2018-10-19T21:52:09.182Z,9.50
2018-10-19T21:54:37.452Z,9.50
2018-10-19T21:57:05.821Z,9.40
2018-10-19T21:59:34.085Z,9.40
2018-10-19T22:02:02.506Z,9.30
2018-10-19T22:04:30.739Z,9.30
2018-10-19T22:06:59.099Z,9.20
2018-10-19T22:09:27.423Z,9.20
2018-10-19T22:11:55.700Z,9.20
2018-10-19T22:14:23.956Z,9.20
2018-10-19T22:16:52.252Z,9.10
2018-10-19T22:19:20.728Z,9.10
2018-10-19T22:21:49.039Z,9.00
2018-10-19T22:24:17.372Z,9.00
2018-10-19T22:26:45.668Z,8.90
2018-10-19T22:29:14.028Z,8.90
2018-10-19T22:31:48.796Z,8.80
2018-10-19T22:34:17.080Z,8.90
2018-10-19T22:36:45.364Z,8.90
2018-10-19T22:39:13.664Z,8.80
2018-10-19T22:41:41.947Z,8.90
2018-10-19T22:44:10.261Z,8.90
2018-10-19T22:46:38.572Z,8.90
2018-10-19T22:49:06.902Z,8.90
2018-10-19T22:51:35.175Z,8.90
2018-10-19T22:54:03.492Z,8.90
2018-10-19T22:56:31.806Z,8.80
2018-10-19T22:59:00.132Z,8.80
2018-10-19T23:01:28.412Z,8.80
2018-10-19T23:03:56.692Z,8.80
2018-10-19T23:06:24.989Z,8.80
2018-10-19T23:08:53.325Z,8.80
2018-10-19T23:11:21.609Z,8.80
2018-10-19T23:13:49.936Z,8.70
2018-10-19T23:16:18.464Z,8.70
2018-10-19T23:18:46.781Z,8.70
2018-10-19T23:21:15.120Z,8.70
2018-10-19T23:23:43.417Z,8.50
2018-10-19T23:26:11.744Z,8.50
2018-10-19T23:28:40.064Z,8.60
2018-10-19T23:31:08.582Z,8.50
2018-10-19T23:33:36.853Z,8.50
2018-10-19T23:36:05.196Z,8.50
2018-10-19T23:38:33.501Z,8.60
2018-10-19T23:41:01.969Z,8.60
2018-10-19T23:43:30.357Z,8.50
2018-10-19T23:45:58.649Z,8.40
2018-10-19T23:48:26.970Z,8.40
2018-10-19T23:50:55.260Z,8.20
2018-10-19T23:55:51.602Z,8.20
2018-10-19T23:58:19.908Z,8.30
